Time;durP1;ratioP1;P1;durP2;ratioP2;P2;SDS_P1;SDS_P2;PMS_P1;PMS_P2;Temp;Humidity;BMP_temperature;BMP_pressure;BME280_temperature;BME280_humidity;BME280_pressure;Samples;Min_cycle;Max_cycle;Signal;HPM_P1;HPM_P2
2022/08/25 00:01:24;;;;;;;43.83;25.48;;;;;;;18.58;100.00;98312.98;1751488;81;21007;-86
2022/08/25 00:03:51;;;;;;;46.20;25.50;;;;;;;18.57;100.00;98310.80;1748451;81;20903;-90
2022/08/25 00:06:17;;;;;;;44.65;23.90;;;;;;;18.53;100.00;98311.76;1753609;81;20999;-87
2022/08/25 00:08:43;;;;;;;42.03;25.00;;;;;;;18.53;100.00;98302.16;1734009;81;21500;-90
2022/08/25 00:11:13;;;;;;;37.00;22.98;;;;;;;18.53;100.00;98302.96;1739736;81;20940;-90
2022/08/25 00:13:42;;;;;;;46.37;24.37;;;;;;;18.53;100.00;98303.53;1750527;81;21057;-87
2022/08/25 00:16:10;;;;;;;;;;;;;;;18.54;100.00;98309.25;1753814;82;20895;-87
2022/08/25 00:18:38;;;;;;;35.93;21.63;;;;;;;18.52;100.00;98303.30;1759318;79;21094;-87
2022/08/25 00:21:05;;;;;;;43.65;23.27;;;;;;;18.48;100.00;98307.83;1736956;81;21671;-90
2022/08/25 00:23:30;;;;;;;38.98;23.90;;;;;;;18.46;100.00;98310.09;1740803;82;21181;-87
2022/08/25 00:25:57;;;;;;;39.78;23.70;;;;;;;18.44;100.00;98302.73;1742439;81;20998;-86
2022/08/25 00:28:23;;;;;;;44.42;24.27;;;;;;;18.43;100.00;98305.23;1744295;80;20980;-88
2022/08/25 00:30:49;;;;;;;41.20;23.98;;;;;;;18.39;100.00;98307.03;1745062;81;21090;-89
2022/08/25 00:33:16;;;;;;;49.18;24.15;;;;;;;18.35;100.00;98304.11;1754391;81;20883;-86
2022/08/25 00:35:42;;;;;;;49.20;25.10;;;;;;;18.37;100.00;98307.33;1746949;81;21466;-85
2022/08/25 00:38:09;;;;;;;44.83;23.80;;;;;;;18.39;100.00;98309.77;1770696;81;20854;-86
2022/08/25 00:40:35;;;;;;;48.70;25.35;;;;;;;18.39;100.00;98306.47;1772140;81;21072;-87
2022/08/25 00:43:01;;;;;;;42.15;24.37;;;;;;;18.39;100.00;98304.29;1754561;80;21033;-91
2022/08/25 00:45:27;;;;;;;51.53;24.95;;;;;;;18.37;100.00;98297.73;1758492;81;20937;-86
2022/08/25 00:47:53;;;;;;;47.75;24.57;;;;;;;18.37;100.00;98303.78;1769767;80;20970;-90
2022/08/25 00:50:19;;;;;;;46.28;24.52;;;;;;;18.32;100.00;98304.77;1758120;81;21384;-87
2022/08/25 00:52:48;;;;;;;53.13;26.52;;;;;;;18.30;100.00;98297.44;1751976;81;20960;-90
2022/08/25 00:55:25;;;;;;;51.95;24.15;;;;;;;18.29;100.00;98294.45;1752347;81;21209;-91
2022/08/25 00:58:14;;;;;;;45.38;24.72;;;;;;;18.27;100.00;98298.87;1741502;81;20999;-86
2022/08/25 01:00:44;;;;;;;47.50;23.67;;;;;;;18.26;100.00;98290.97;1750946;81;20982;-90
2022/08/25 01:03:10;;;;;;;51.33;24.30;;;;;;;18.23;100.00;98300.66;1765641;81;20985;-87
2022/08/25 01:05:36;;;;;;;67.12;25.57;;;;;;;18.22;100.00;98291.39;1765594;81;20950;-90
2022/08/25 01:08:03;;;;;;;52.58;26.75;;;;;;;18.17;100.00;98290.97;1759175;80;21033;-86
2022/08/25 01:10:29;;;;;;;50.08;25.88;;;;;;;18.13;100.00;98291.39;1727420;81;20959;-90
2022/08/25 01:13:00;;;;;;;59.88;26.40;;;;;;;18.14;100.00;98292.19;1765707;80;20867;-86
2022/08/25 01:15:26;;;;;;;49.70;26.05;;;;;;;18.12;100.00;98285.66;1757402;80;21467;-87
2022/08/25 01:17:54;;;;;;;50.55;26.35;;;;;;;18.10;100.00;98289.84;1753079;80;20969;-86
2022/08/25 01:20:22;;;;;;;40.03;24.10;;;;;;;18.10;100.00;98287.09;1736886;81;20951;-90
2022/08/25 01:22:49;;;;;;;48.78;24.63;;;;;;;18.07;100.00;98287.19;1740895;82;20994;-86
2022/08/25 01:25:46;;;;;;;38.35;23.07;;;;;;;18.03;100.00;98287.03;1740533;82;21409;-89
2022/08/25 01:28:12;;;;;;;50.80;22.60;;;;;;;18.02;100.00;98290.07;1740678;82;20996;-86
2022/08/25 01:30:38;;;;;;;49.25;24.30;;;;;;;18.00;100.00;98286.28;1740651;82;20975;-88
2022/08/25 01:33:06;;;;;;;40.12;21.62;;;;;;;18.01;100.00;98287.09;1744451;81;21026;-90
2022/08/25 01:35:32;;;;;;;49.65;22.48;;;;;;;18.02;100.00;98292.25;1740995;81;21025;-90
2022/08/25 01:38:01;;;;;;;42.43;21.37;;;;;;;17.97;100.00;98289.68;1750507;81;20963;-89
2022/08/25 01:40:27;;;;;;;35.03;20.90;;;;;;;17.93;100.00;98281.03;1744588;81;20970;-86
2022/08/25 01:43:17;;;;;;;36.25;20.82;;;;;;;17.93;100.00;98284.58;1757161;81;20990;-90
2022/08/25 01:45:45;;;;;;;39.98;21.80;;;;;;;17.93;100.00;98282.41;1746604;81;21064;-86
2022/08/25 01:48:12;;;;;;;50.78;24.40;;;;;;;17.91;100.00;98285.47;1742243;80;20866;-90
2022/08/25 01:50:38;;;;;;;43.73;23.60;;;;;;;17.89;100.00;98279.52;1741093;81;20971;-87
2022/08/25 01:53:09;;;;;;;49.55;25.05;;;;;;;17.90;100.00;98285.23;1747178;81;20994;-90
2022/08/25 01:55:50;;;;;;;46.45;25.30;;;;;;;17.87;100.00;98281.78;1756502;81;20962;-90
2022/08/25 01:58:03;;;;;;;43.78;23.42;;;;;;;17.86;100.00;98283.44;1727589;81;21529;-89
2022/08/25 02:00:29;;;;;;;41.45;22.45;;;;;;;17.85;100.00;98276.34;1757635;80;20884;-89
2022/08/25 02:02:56;;;;;;;35.68;22.00;;;;;;;17.81;100.00;98276.20;1741409;81;20863;-86
2022/08/25 02:05:22;;;;;;;34.25;19.82;;;;;;;17.75;100.00;98275.53;1745808;81;21411;-87
2022/08/25 02:07:48;;;;;;;30.48;20.08;;;;;;;17.75;100.00;98270.05;1763854;81;20883;-90
2022/08/25 02:10:14;;;;;;;30.30;17.42;;;;;;;17.72;100.00;98272.64;1732358;81;21415;-87
2022/08/25 02:12:40;;;;;;;38.10;18.45;;;;;;;17.72;100.00;98274.01;1735713;81;21467;-89
2022/08/25 02:15:07;;;;;;;34.30;18.00;;;;;;;17.71;100.00;98280.62;1740947;81;20860;-86
2022/08/25 02:17:35;;;;;;;25.80;17.25;;;;;;;17.66;100.00;98276.62;1759385;80;21427;-89
2022/08/25 02:20:04;;;;;;;36.33;17.12;;;;;;;17.64;100.00;98279.69;1741493;81;20995;-89
2022/08/25 02:22:30;;;;;;;31.48;16.25;;;;;;;17.59;100.00;98272.16;1740940;82;21808;-89
2022/08/25 02:24:56;;;;;;;28.20;16.90;;;;;;;17.58;100.00;98280.15;1740787;82;20875;-90
2022/08/25 02:27:23;;;;;;;28.52;18.37;;;;;;;17.48;100.00;98271.66;1751200;81;20902;-87
2022/08/25 02:29:49;;;;;;;35.98;19.25;;;;;;;17.47;100.00;98264.02;1751198;82;21352;-90
2022/08/25 02:32:14;;;;;;;31.48;17.52;;;;;;;17.48;100.00;98271.10;1739082;82;21620;-86
2022/08/25 02:34:40;;;;;;;27.27;17.75;;;;;;;17.51;100.00;98271.58;1761615;81;21326;-86
2022/08/25 02:37:07;;;;;;;38.05;18.67;;;;;;;17.51;100.00;98268.28;1747056;81;20945;-86
2022/08/25 02:39:33;;;;;;;40.08;16.48;;;;;;;17.52;100.00;98267.18;1746674;80;21540;-89
2022/08/25 02:41:59;;;;;;;37.78;19.07;;;;;;;17.49;100.00;98269.17;1749998;79;21477;-86
2022/08/25 02:44:25;;;;;;;29.80;17.30;;;;;;;17.51;100.00;98272.95;1738853;81;21703;-86
2022/08/25 02:46:51;;;;;;;36.25;18.32;;;;;;;17.51;100.00;98265.54;1754624;81;21317;-90
2022/08/25 02:49:17;;;;;;;34.45;18.60;;;;;;;17.50;100.00;98272.15;1765889;80;20947;-89
2022/08/25 02:51:43;;;;;;;36.93;19.15;;;;;;;17.52;100.00;98267.18;1766110;80;21036;-86
2022/08/25 02:54:09;;;;;;;36.75;19.40;;;;;;;17.54;100.00;98269.03;1765916;80;20957;-86
2022/08/25 02:56:35;;;;;;;30.85;17.92;;;;;;;17.53;100.00;98266.62;1753573;81;20876;-86
2022/08/25 02:59:01;;;;;;;40.12;18.27;;;;;;;17.53;100.00;98259.20;1765668;81;21137;-86
2022/08/25 03:01:29;;;;;;;35.52;18.70;;;;;;;17.55;100.00;98263.79;1759829;80;21439;-86
2022/08/25 03:03:55;;;;;;;31.05;17.98;;;;;;;17.55;100.00;98255.57;1740448;81;20999;-86
2022/08/25 03:06:22;;;;;;;29.60;16.55;;;;;;;17.54;100.00;98255.90;1741174;81;20916;-90
2022/08/25 03:08:49;;;;;;;25.15;16.52;;;;;;;17.55;100.00;98256.14;1738058;81;20966;-87
2022/08/25 03:11:16;;;;;;;29.75;16.07;;;;;;;17.52;100.00;98254.02;1732596;81;21220;-85
2022/08/25 03:13:43;;;;;;;30.97;15.77;;;;;;;17.52;100.00;98254.02;1753110;81;20974;-85
2022/08/25 03:16:09;;;;;;;28.98;18.20;;;;;;;17.54;100.00;98257.27;1762913;81;20890;-90
2022/08/25 03:18:35;;;;;;;28.00;15.90;;;;;;;17.53;100.00;98250.98;1748186;81;20974;-86
2022/08/25 03:21:02;;;;;;;31.57;15.95;;;;;;;17.54;100.00;98253.16;1740458;81;20996;-90
2022/08/25 03:23:28;;;;;;;33.08;17.25;;;;;;;17.54;100.00;98251.22;1740712;81;21019;-88
2022/08/25 03:28:38;;;;;;;30.75;15.38;;;;;;;17.58;100.00;98253.55;1740576;81;20976;-86
2022/08/25 03:31:05;;;;;;;28.02;16.20;;;;;;;17.59;100.00;98251.62;1731781;82;20855;-88
2022/08/25 03:33:31;;;;;;;29.37;16.93;;;;;;;17.59;100.00;98252.42;1751005;82;20951;-86
2022/08/25 03:35:57;;;;;;;27.60;17.25;;;;;;;17.57;100.00;98247.83;1750742;82;21091;-90
2022/08/25 03:38:24;;;;;;;25.02;16.07;;;;;;;17.55;100.00;98248.72;1750884;82;21450;-89
2022/08/25 03:40:50;;;;;;;25.45;15.58;;;;;;;17.57;100.00;98245.66;1757813;80;20974;-87
2022/08/25 03:43:17;;;;;;;25.97;17.15;;;;;;;17.55;100.00;98250.66;1730210;80;20932;-86
2022/08/25 03:45:43;;;;;;;24.70;16.32;;;;;;;17.54;100.00;98246.31;1752282;81;21027;-87
2022/08/25 03:48:09;;;;;;;22.35;15.98;;;;;;;17.56;100.00;98246.22;1750939;81;21721;-90
2022/08/25 03:50:35;;;;;;;22.45;15.03;;;;;;;17.57;100.00;98241.55;1750759;82;20955;-86
2022/08/25 03:53:01;;;;;;;21.35;15.65;;;;;;;17.54;100.00;98248.48;1740557;81;20983;-90
2022/08/25 03:55:28;;;;;;;24.60;16.60;;;;;;;17.53;100.00;98247.44;1740623;82;20998;-87
2022/08/25 03:57:54;;;;;;;32.75;16.00;;;;;;;17.53;100.00;98249.61;1740508;82;21687;-90
2022/08/25 04:00:21;;;;;;;26.70;15.93;;;;;;;17.52;100.00;98242.52;1738267;82;20999;-87
2022/08/25 04:02:47;;;;;;;27.20;17.25;;;;;;;17.52;100.00;98246.63;1721136;81;21029;-86
2022/08/25 04:05:13;;;;;;;32.30;18.75;;;;;;;17.53;100.00;98247.44;1732051;82;20974;-86
2022/08/25 04:07:39;;;;;;;30.95;17.02;;;;;;;17.54;100.00;98250.42;1750650;82;21407;-88
2022/08/25 04:10:06;;;;;;;29.27;17.27;;;;;;;17.55;100.00;98250.09;1737212;81;20957;-86
2022/08/25 04:12:32;;;;;;;26.15;16.07;;;;;;;17.54;100.00;98251.79;1745994;81;21153;-86
2022/08/25 04:14:58;;;;;;;30.75;16.00;;;;;;;17.53;100.00;98242.77;1762830;81;21401;-89
2022/08/25 04:17:24;;;;;;;29.48;14.55;;;;;;;17.56;100.00;98246.22;1743463;81;21040;-86
2022/08/25 04:19:50;;;;;;;26.82;15.53;;;;;;;17.56;100.00;98246.22;1764233;81;21406;-89
2022/08/25 04:22:16;;;;;;;30.32;17.20;;;;;;;17.57;100.00;98245.66;1748084;81;20977;-89
2022/08/25 04:24:42;;;;;;;29.70;17.30;;;;;;;17.59;100.00;98245.57;1722368;81;21124;-89
2022/08/25 04:27:08;;;;;;;32.90;17.67;;;;;;;17.59;100.00;98243.40;1753610;81;20855;-90
2022/08/25 04:29:34;;;;;;;32.98;16.93;;;;;;;17.59;100.00;98241.47;1735601;81;20870;-86
2022/08/25 04:32:00;;;;;;;24.37;15.20;;;;;;;17.63;100.00;98245.19;1760542;81;20915;-90
2022/08/25 04:34:26;;;;;;;33.58;16.67;;;;;;;17.61;100.00;98247.45;1746213;81;20915;-89
2022/08/25 04:36:52;;;;;;;30.43;17.07;;;;;;;17.61;100.00;98247.45;1751549;81;21082;-86
2022/08/25 04:39:19;;;;;;;43.02;17.25;;;;;;;17.65;100.00;98251.16;1750173;81;20975;-90
2022/08/25 04:41:47;;;;;;;27.60;17.73;;;;;;;17.69;100.00;98253.52;1744636;80;21403;-90
2022/08/25 04:44:13;;;;;;;33.65;16.07;;;;;;;17.74;100.00;98243.78;1762527;81;20985;-90
2022/08/25 04:46:39;;;;;;;27.93;16.50;;;;;;;17.74;100.00;98245.15;1745285;81;20911;-86
2022/08/25 04:49:05;;;;;;;31.52;16.57;;;;;;;17.76;100.00;98239.34;1740533;81;21135;-89
2022/08/25 04:51:39;;;;;;;24.87;15.38;;;;;;;17.82;100.00;98242.74;1752447;81;20827;-86
2022/08/25 04:54:09;;;;;;;34.90;19.05;;;;;;;17.85;100.00;98242.09;1754598;81;20969;-86
2022/08/25 04:56:35;;;;;;;27.35;16.37;;;;;;;17.85;100.00;98237.98;1715488;82;21484;-89
2022/08/25 04:59:04;;;;;;;36.30;18.23;;;;;;;17.92;100.00;98234.20;1746840;81;20988;-90
2022/08/25 05:01:30;;;;;;;36.63;17.70;;;;;;;17.96;100.00;98229.12;1750505;81;21167;-89
2022/08/25 05:03:58;;;;;;;30.60;17.25;;;;;;;18.02;100.00;98231.13;1725616;81;21432;-86
2022/08/25 05:06:25;;;;;;;29.72;17.55;;;;;;;18.03;100.00;98227.25;1724586;81;21028;-86
2022/08/25 05:08:51;;;;;;;27.20;16.32;;;;;;;18.09;100.00;98233.38;1753308;80;20942;-86
2022/08/25 05:11:18;;;;;;;30.68;17.57;;;;;;;18.11;100.00;98230.55;1748126;80;20988;-86
2022/08/25 05:13:46;;;;;;;24.18;15.40;;;;;;;18.11;100.00;98225.64;1730011;81;21518;-86
2022/08/25 05:16:12;;;;;;;33.33;16.15;;;;;;;18.15;100.00;98231.53;1740342;81;20900;-87
2022/08/25 05:18:38;;;;;;;30.27;16.42;;;;;;;18.22;100.00;98230.48;1761600;79;21529;-86
2022/08/25 05:21:09;;;;;;;28.95;15.63;;;;;;;18.27;100.00;98228.13;1752125;81;21426;-89
2022/08/25 05:23:35;;;;;;;24.25;15.05;;;;;;;18.30;100.00;98226.92;1754802;81;20963;-86
2022/08/25 05:26:09;;;;;;;28.52;15.55;;;;;;;18.37;100.00;98225.60;1755980;81;21198;-90
2022/08/25 05:28:36;;;;;;;30.50;18.10;;;;;;;18.40;100.00;98222.23;1748953;81;20978;-90
2022/08/25 05:31:03;;;;;;;29.65;16.40;;;;;;;18.47;100.00;98226.66;1751978;81;20966;-90
2022/08/25 05:33:29;;;;;;;29.10;16.20;;;;;;;18.53;100.00;98232.19;1719381;81;21430;-86
2022/08/25 05:35:55;;;;;;;27.80;17.07;;;;;;;18.58;100.00;98224.59;1750893;81;21437;-86
2022/08/25 05:38:21;;;;;;;34.75;16.40;;;;;;;18.64;100.00;98227.18;1745696;81;22130;-87
2022/08/25 05:40:53;;;;;;;27.85;17.20;;;;;;;18.69;100.00;98225.64;1747066;80;20875;-86
2022/08/25 05:43:19;;;;;;;27.17;16.80;;;;;;;18.73;100.00;98224.67;1764458;80;21119;-90
2022/08/25 05:45:45;;;;;;;31.90;16.48;;;;;;;18.80;100.00;98224.14;1755343;80;20835;-89
2022/08/25 05:48:11;;;;;;;31.62;16.82;;;;;;;18.87;100.00;98229.37;1753688;80;21054;-90
2022/08/25 05:50:37;;;;;;;30.80;16.07;;;;;;;18.92;100.00;98223.48;1744522;80;21145;-89
2022/08/25 05:53:04;;;;;;;33.42;17.12;;;;;;;18.97;100.00;98228.23;1728625;82;21473;-86
2022/08/25 05:55:30;;;;;;;29.95;15.65;;;;;;;19.03;100.00;98228.83;1753062;81;21112;-86
2022/08/25 05:57:57;;;;;;;24.10;15.28;;;;;;;19.09;100.00;98231.06;1731959;80;40665;-89
2022/08/25 06:00:23;;;;;;;28.40;16.42;;;;;;;19.08;100.00;98228.66;1709937;81;21043;-90
2022/08/25 06:02:49;;;;;;;31.02;16.60;;;;;;;19.15;100.00;98228.95;1740749;79;21743;-89
2022/08/25 06:05:22;;;;;;;29.40;16.50;;;;;;;19.22;100.00;98224.29;1748857;80;20970;-89
2022/08/25 06:07:50;;;;;;;29.35;16.07;;;;;;;19.31;100.00;98230.00;1748501;80;21107;-86
2022/08/25 06:10:16;;;;;;;28.50;16.90;;;;;;;19.39;100.00;98231.86;1753612;79;21063;-86
2022/08/25 06:12:43;;;;;;;23.12;16.20;;;;;;;19.47;100.00;98230.20;1754037;79;21091;-86
2022/08/25 06:15:12;;;;;;;28.60;16.60;;;;;;;19.54;100.00;98236.56;1747931;80;21816;-90
2022/08/25 06:17:41;;;;;;;29.12;16.60;;;;;;;19.61;100.00;98236.30;1749705;79;21492;-85
2022/08/25 06:20:10;;;;;;;25.72;15.15;;;;;;;19.55;100.00;98238.97;1755480;79;21015;-85
2022/08/25 06:22:36;;;;;;;34.03;17.85;;;;;;;19.62;100.00;98239.28;1755053;79;21181;-86
2022/08/25 06:25:06;;;;;;;37.05;18.65;;;;;;;19.71;100.00;98244.72;1751112;81;20926;-86
2022/08/25 06:27:33;;;;;;;37.05;18.92;;;;;;;19.79;100.00;98247.17;1745618;81;21128;-89
2022/08/25 06:30:03;;;;;;;39.88;19.75;;;;;;;19.85;100.00;98241.72;1732031;81;20997;-89
2022/08/25 06:32:31;;;;;;;37.70;20.27;;;;;;;19.99;100.00;98246.36;1738146;81;21156;-86
2022/08/25 06:34:57;;;;;;;35.85;20.00;;;;;;;20.02;100.00;98244.34;1750945;79;20996;-86
2022/08/25 06:37:25;;;;;;;32.60;19.15;;;;;;;20.06;100.00;98248.02;1752253;80;20990;-86
2022/08/25 06:39:51;;;;;;;33.90;18.60;;;;;;;20.12;100.00;98248.63;1741248;81;21472;-89
2022/08/25 06:42:17;;;;;;;36.95;19.15;;;;;;;20.16;100.00;98246.79;1744067;80;21679;-87
2022/08/25 06:44:43;;;;;;;33.83;19.32;;;;;;;20.09;100.00;98248.73;1740302;79;21068;-86
2022/08/25 06:47:09;;;;;;;33.50;19.48;;;;;;;20.02;100.00;98249.84;1758699;79;21076;-86
2022/08/25 06:49:35;;;;;;;28.38;17.42;;;;;;;19.95;100.00;98248.99;1749257;80;21459;-89
2022/08/25 06:52:02;;;;;;;25.77;16.57;;;;;;;19.99;100.00;98244.98;1750352;81;21114;-89
2022/08/25 06:54:28;;;;;;;29.40;18.17;;;;;;;20.01;100.00;98252.36;1726523;81;21049;-86
2022/08/25 06:56:54;;;;;;;23.57;17.48;;;;;;;20.06;100.00;98253.52;1756901;81;21001;-86
2022/08/25 06:59:20;;;;;;;31.05;18.52;;;;;;;20.05;100.00;98252.48;1759544;79;20872;-90
2022/08/25 07:01:46;;;;;;;28.73;17.32;;;;;;;19.98;100.00;98250.26;1738693;81;20990;-86
2022/08/25 07:04:12;;;;;;;31.75;17.00;;;;;;;20.01;100.00;98253.73;1736264;79;21230;-88
2022/08/25 07:06:40;;;;;;;30.27;17.85;;;;;;;20.08;100.00;98255.92;1748649;81;21123;-88
2022/08/25 07:09:08;;;;;;;28.10;18.53;;;;;;;20.12;100.00;98259.62;1749758;80;20962;-86
2022/08/25 07:11:34;;;;;;;30.65;18.95;;;;;;;20.10;100.00;98261.91;1749226;79;21412;-86
2022/08/25 07:14:01;;;;;;;24.50;16.50;;;;;;;20.18;100.00;98259.66;1734668;80;21154;-85
2022/08/25 07:16:28;;;;;;;29.72;17.25;;;;;;;20.25;100.00;98266.23;1754302;81;21299;-86
2022/08/25 07:18:55;;;;;;;27.15;16.25;;;;;;;20.31;100.00;98263.26;1753618;81;21054;-89
2022/08/25 07:21:23;;;;;;;28.32;17.55;;;;;;;20.40;100.00;98263.98;1735906;81;21007;-86
2022/08/25 07:23:48;;;;;;;29.45;17.62;;;;;;;20.45;100.00;98260.48;1739146;80;21147;-86
2022/08/25 07:26:18;;;;;;;25.15;15.80;;;;;;;20.48;100.00;98261.18;1745113;80;20908;-90
2022/08/25 07:28:44;;;;;;;28.30;18.87;;;;;;;20.50;100.00;98258.88;1741586;81;21013;-90
2022/08/25 07:31:10;;;;;;;32.20;17.02;;;;;;;20.58;100.00;98259.14;1748034;81;22280;-86
2022/08/25 07:33:36;;;;;;;32.38;18.65;;;;;;;20.55;100.00;98257.31;1742355;81;21607;-86
2022/08/25 07:36:02;;;;;;;27.80;16.45;;;;;;;20.66;100.00;98262.38;1738261;81;20873;-86
2022/08/25 07:38:28;;;;;;;22.02;14.98;;;;;;;20.72;100.00;98262.41;1745318;80;21159;-86
2022/08/25 07:41:01;;;;;;;22.60;15.30;;;;;;;20.84;100.00;98263.80;1746019;81;22004;-85
2022/08/25 07:43:27;;;;;;;24.52;15.28;;;;;;;20.95;100.00;98263.61;1749389;81;21065;-90
2022/08/25 07:45:53;;;;;;;23.45;15.58;;;;;;;21.09;100.00;98260.51;1748631;80;20910;-88
2022/08/25 07:48:19;;;;;;;24.12;14.25;;;;;;;21.25;100.00;98258.69;1761563;79;20875;-86
2022/08/25 07:50:46;;;;;;;24.47;14.55;;;;;;;21.42;100.00;98258.27;1746925;80;20873;-89
2022/08/25 07:53:13;;;;;;;23.65;14.43;;;;;;;21.38;100.00;98260.34;1739058;80;21190;-86
2022/08/25 07:55:40;;;;;;;27.05;15.75;;;;;;;21.46;100.00;98258.63;1742945;81;21021;-89
2022/08/25 07:58:08;;;;;;;29.23;15.43;;;;;;;21.58;100.00;98264.69;1757542;79;21491;-86
2022/08/25 08:00:35;;;;;;;33.88;16.05;;;;;;;21.60;100.00;98262.38;1747616;80;21041;-86
2022/08/25 08:03:04;;;;;;;27.40;15.53;;;;;;;21.68;100.00;98257.32;1741689;81;21080;-90
2022/08/25 08:05:30;;;;;;;21.73;14.87;;;;;;;21.73;100.00;98262.61;1746034;81;22044;-86
2022/08/25 08:07:56;;;;;;;29.30;15.93;;;;;;;21.64;100.00;98259.18;1749529;81;20971;-90
2022/08/25 08:10:24;;;;;;;56.18;37.17;;;;;;;21.69;100.00;98258.34;1726105;81;21032;-86
2022/08/25 08:12:50;;;;;;;30.15;15.65;;;;;;;21.73;100.00;98261.81;1758097;80;20993;-86
2022/08/25 08:15:17;;;;;;;27.62;13.78;;;;;;;21.73;100.00;98252.16;1759915;80;21308;-88
2022/08/25 08:17:44;;;;;;;21.30;12.82;;;;;;;21.82;100.00;98261.91;1763641;79;21087;-85
2022/08/25 08:20:10;;;;;;;19.32;12.23;;;;;;;21.62;100.00;98256.77;1765821;79;20880;-89
2022/08/25 08:22:39;;;;;;;21.05;12.50;;;;;;;21.69;100.00;98263.06;1757426;79;21013;-90
2022/08/25 08:25:07;;;;;;;25.32;12.65;;;;;;;21.98;100.00;98259.23;1754498;80;21044;-86
2022/08/25 08:27:33;;;;;;;23.77;11.88;;;;;;;22.40;100.00;98255.55;1757564;80;21082;-90
2022/08/25 08:30:01;;;;;;;23.38;12.10;;;;;;;23.12;100.00;98255.50;1761432;80;21113;-90
2022/08/25 08:32:26;;;;;;;18.27;11.03;;;;;;;24.30;100.00;98249.33;1753847;79;21556;-87
2022/08/25 08:34:53;;;;;;;21.02;10.75;;;;;;;25.00;96.13;98250.48;1754436;79;20938;-87
2022/08/25 08:37:19;;;;;;;24.47;11.20;;;;;;;25.37;97.31;98254.09;1752422;81;21136;-87
2022/08/25 08:39:45;;;;;;;24.00;10.38;;;;;;;26.23;96.55;98252.56;1749905;81;20992;-87
2022/08/25 08:42:45;;;;;;;18.82;9.95;;;;;;;27.40;92.66;98242.71;1752307;81;20986;-87
2022/08/25 08:45:35;;;;;;;18.35;9.40;;;;;;;28.50;85.33;98249.55;1745750;81;20998;-87
2022/08/25 08:48:26;;;;;;;21.48;9.10;;;;;;;29.48;84.96;98242.31;1750717;79;21044;-87
2022/08/25 08:51:24;;;;;;;21.40;9.30;;;;;;;29.76;76.31;98240.13;1764546;81;21116;-90
2022/08/25 08:54:00;;;;;;;21.62;8.25;;;;;;;30.07;74.38;98234.24;1752559;80;21087;-87
2022/08/25 08:56:30;;;;;;;17.70;8.73;;;;;;;31.29;74.77;98242.84;1755496;81;21119;-91
2022/08/25 08:59:13;;;;;;;20.02;8.60;;;;;;;32.00;71.18;98237.98;1720332;81;21049;-88
2022/08/25 09:01:46;;;;;;;22.98;8.85;;;;;;;32.54;69.17;98236.73;1753940;80;21087;-89
2022/08/25 09:04:38;;;;;;;21.85;8.85;;;;;;;32.58;57.65;98236.70;1765337;79;21073;-88
2022/08/25 09:07:10;;;;;;;15.43;8.23;;;;;;;33.43;63.85;98234.66;1744614;81;21141;-89
2022/08/25 09:09:36;;;;;;;19.02;7.85;;;;;;;33.48;57.22;98239.77;1747406;80;21757;-88
2022/08/25 09:12:13;;;;;;;23.30;7.92;;;;;;;33.41;55.85;98235.06;1765263;79;20948;-91
2022/08/25 09:15:03;;;;;;;21.93;8.50;;;;;;;33.63;59.15;98233.47;1751669;80;21018;-88
2022/08/25 09:17:59;;;;;;;24.45;8.05;;;;;;;34.15;56.67;98230.72;1762059;81;21773;-89
2022/08/25 09:21:02;;;;;;;21.37;7.33;;;;;;;33.84;52.72;98221.06;1755218;81;21075;-91
2022/08/25 09:23:38;;;;;;;26.25;10.13;;;;;;;33.82;54.90;98223.48;1753000;79;21014;-88
2022/08/25 09:26:26;;;;;;;21.57;7.87;;;;;;;34.52;54.76;98220.33;1743707;80;21066;-90
2022/08/25 09:28:58;;;;;;;23.85;9.43;;;;;;;35.23;52.75;98211.06;1753085;80;21039;-89
2022/08/25 09:31:37;;;;;;;23.12;8.18;;;;;;;35.73;49.67;98219.66;1732416;81;21045;-88
2022/08/25 09:34:08;;;;;;;24.60;7.85;;;;;;;35.41;50.32;98212.66;1755415;81;21650;-88
2022/08/25 09:36:34;;;;;;;20.80;7.97;;;;;;;35.28;50.79;98218.16;1748746;79;21642;-88
2022/08/25 09:39:00;;;;;;;23.12;8.23;;;;;;;36.04;50.76;98222.84;1725310;81;21536;-90
2022/08/25 09:41:48;;;;;;;26.50;8.05;;;;;;;36.07;47.95;98214.92;1756555;81;20945;-91
2022/08/25 09:44:43;;;;;;;26.10;8.45;;;;;;;34.69;46.79;98207.27;1748225;81;21033;-88
2022/08/25 09:47:24;;;;;;;24.72;8.20;;;;;;;35.01;49.08;98209.37;1762731;79;20973;-91
2022/08/25 09:50:01;;;;;;;24.52;8.58;;;;;;;35.49;47.96;98205.61;1750865;81;21053;-90
2022/08/25 09:52:33;;;;;;;25.37;7.25;;;;;;;35.97;46.68;98210.97;1767405;80;21683;-89
2022/08/25 09:55:13;;;;;;;25.62;8.43;;;;;;;36.55;46.57;98199.63;1757189;80;21005;-88
2022/08/25 09:57:47;;;;;;;22.25;7.03;;;;;;;34.34;47.05;98197.57;1762568;80;20962;-90
2022/08/25 10:00:32;;;;;;;19.77;7.37;;;;;;;33.43;51.26;98196.75;1759284;79;21083;-88
2022/08/25 10:03:19;;;;;;;29.25;9.18;;;;;;;32.13;53.56;98189.17;1755265;80;21083;-89
2022/08/25 10:06:09;;;;;;;32.03;9.30;;;;;;;31.12;56.60;98194.97;1758629;81;21536;-91
2022/08/25 10:08:45;;;;;;;20.72;8.80;;;;;;;30.28;58.07;98192.29;1754091;79;21599;-87
2022/08/25 10:11:34;;;;;;;28.75;9.65;;;;;;;29.70;59.69;98186.69;1756247;79;21528;-90
2022/08/25 10:14:04;;;;;;;20.50;8.03;;;;;;;28.87;62.20;98190.67;1759807;81;20993;-91
2022/08/25 10:16:31;;;;;;;24.50;8.38;;;;;;;28.82;62.24;98181.92;1739598;79;21349;-88
2022/08/25 10:19:11;;;;;;;24.30;9.15;;;;;;;28.11;66.30;98175.53;1764093;79;21063;-87
2022/08/25 10:21:39;;;;;;;33.15;9.53;;;;;;;27.93;66.61;98176.06;1751635;80;21160;-87
2022/08/25 10:24:06;;;;;;;35.83;9.50;;;;;;;27.56;68.03;98170.08;1756878;79;21652;-87
2022/08/25 10:26:54;;;;;;;29.50;10.23;;;;;;;27.48;68.97;98169.83;1762748;80;21052;-90
2022/08/25 10:29:36;;;;;;;;;;;;;;;27.07;71.28;98164.37;1769095;80;21118;-87
2022/08/25 10:32:10;;;;;;;26.85;9.48;;;;;;;26.98;72.49;98170.23;1760335;81;20145;-90
2022/08/25 10:34:55;;;;;;;40.70;9.98;;;;;;;26.79;73.23;98164.11;1749391;81;22104;-90
2022/08/25 10:37:43;;;;;;;33.60;9.85;;;;;;;26.62;74.37;98163.56;1756511;81;21155;-88
2022/08/25 10:40:34;;;;;;;39.65;9.83;;;;;;;26.41;76.95;98162.77;1760213;80;25920;-87
2022/08/25 10:43:12;;;;;;;28.38;9.95;;;;;;;26.70;74.19;98162.45;1756629;80;21114;-88
2022/08/25 10:45:43;;;;;;;32.98;9.68;;;;;;;26.76;74.85;98153.77;1760806;81;21025;-91
2022/08/25 10:48:34;;;;;;;31.55;9.53;;;;;;;26.78;74.76;98154.98;1710263;82;21115;-91
2022/08/25 10:51:30;;;;;;;35.95;8.60;;;;;;;26.70;75.42;98149.94;1747239;81;21561;-88
2022/08/25 10:54:10;;;;;;;34.50;7.62;;;;;;;26.63;75.29;98151.27;1748158;81;21446;-88
2022/08/25 10:56:43;;;;;;;35.03;8.03;;;;;;;26.57;74.33;98147.81;1744808;81;21281;-88
2022/08/25 10:59:29;;;;;;;26.97;7.80;;;;;;;26.75;74.58;98144.64;1759434;79;21358;-88
2022/08/25 11:02:33;;;;;;;34.58;8.63;;;;;;;26.78;74.53;98143.06;1745344;80;21057;-90
2022/08/25 11:05:39;;;;;;;29.92;8.85;;;;;;;26.78;74.10;98138.89;1733823;81;21006;-87
2022/08/25 11:08:16;;;;;;;33.55;8.88;;;;;;;26.71;74.54;98138.23;1749370;79;21039;-91
2022/08/25 11:10:50;;;;;;;31.80;8.13;;;;;;;26.65;74.46;98134.20;1731055;80;21284;-92
2022/08/25 11:13:27;;;;;;;28.38;7.83;;;;;;;26.74;74.69;98131.10;1738647;79;21092;-90
2022/08/25 11:15:57;;;;;;;60.28;24.85;;;;;;;26.69;75.08;98126.13;1739423;79;21572;-88
2022/08/25 11:18:23;;;;;;;41.40;10.18;;;;;;;26.75;74.36;98121.02;1752729;81;21036;-89
2022/08/25 11:21:06;;;;;;;34.53;8.08;;;;;;;26.76;74.46;98121.81;1755184;81;21222;-88
2022/08/25 11:23:42;;;;;;;31.42;8.63;;;;;;;26.83;74.30;98119.06;1760372;80;21430;-88
2022/08/25 11:26:14;;;;;;;36.00;8.83;;;;;;;26.93;74.47;98115.00;1754398;81;21502;-91
2022/08/25 11:28:54;;;;;;;32.42;8.40;;;;;;;27.02;74.25;98118.84;1750149;81;21529;-92
2022/08/25 11:31:20;;;;;;;32.85;7.90;;;;;;;27.06;73.72;98118.88;1757197;81;21045;-88